WEATHER DATA

YESTERDAY
Time Temp. Dewp. Hum. Wind dir Wind speed Wind gust Bar. 1h Prec. 24h Prec.
00:14 3.7 2.7 93 246 1.7 2.8 1009.9 0.2080 0.0000
00:25 3.7 2.7 93 242 1.7 3.1 1009.7 0.2080 0.0000
00:35 3.5 2.3 92 228 1.9 3.3 1009.6 0.1040 0.0000
00:44 3.6 2.6 93 225 3.1 4.7 1009.4 0.1040 0.0000
00:54 3.4 2.2 92 223 2.2 3.1 1009.3 0.0000 0.0000
01:15 3 2 93 223 2.5 3.3 1009 0.0000 0.0000
01:24 3 2.1 94 223 2.5 3.3 1008.8 0.0000 0.0000
01:33 3.1 2.4 95 211 2.5 3.1 1008.7 0.0000 0.0000
01:43 3.3 2.6 95 250 1.7 3.1 1008.8 0.1040 0.1000
01:53 3.5 2.6 94 283 1.4 2.8 1008.4 0.2080 0.2000
02:02 3.6 2.7 94 280 1.4 2.8 1008.7 0.3120 0.3000
02:12 3.7 2.7 93 339 1.9 3.6 1008.5 0.8330 0.8000
02:22 3.6 2.6 93 255 1.1 2.2 1008.4 0.8330 0.8000
02:32 3.5 2.5 93 243 1.1 1.9 1008.3 0.8330 0.8000
02:42 3.4 2.4 93 260 1.4 2.5 1008.3 0.7290 0.8000
02:52 3.5 2.6 94 255 1.4 3.1 1008.6 0.9380 1.1000
03:03 3.5 2.5 93 242 1.7 3.1 1008.2 1.3560 1.7000
03:12 3.5 2.5 93 233 1.9 2.8 1008 0.8350 1.7000
03:22 3.5 2.6 94 237 1.7 2.5 1008 0.9390 1.8000
03:33 3.4 2.4 93 227 1.9 3.1 1007.9 0.9390 1.8000
03:43 3.5 2.6 94 240 1.1 2.2 1007.8 0.9390 1.8000
03:53 3.6 2.7 94 257 1.4 2.8 1007.7 0.6260 1.8000
04:02 3.6 2.7 94 247 1.1 2.5 1007.6 0.1040 1.8000
04:13 3.7 2.8 94 282 1.4 3.6 1007.6 0.2080 1.9000
04:23 3.8 2.9 94 237 0.8 1.9 1007.5 0.1040 1.9000
04:33 3.8 2.9 94 220 1.1 1.4 1007.3 0.2080 2.0000
04:43 3.7 2.7 93 279 1.1 2.8 1007.1 0.4170 2.2000
04:53 3.7 2.8 94 328 1.4 2.5 1007.3 0.6260 2.4000
05:03 3.7 2.8 94 339 2.2 3.9 1007.4 0.9390 2.7000
05:13 3.6 2.6 93 341 2.5 5.6 1007.4 1.0430 2.9000
05:24 3.4 2.4 93 311 3.1 6.4 1007.2 1.3560 3.2000
05:34 3.3 2.3 93 310 5.3 7.5 1007 1.2520 3.2000
05:43 3.2 2.3 94 299 2.2 3.9 1007 1.0430 3.2000
05:54 3.2 2.3 94 320 1.4 3.9 1006.9 0.9380 3.3000
06:04 3.2 2.3 94 0 1.7 3.6 1006.9 0.7290 3.4000
06:14 3.1 2.4 95 201 1.9 3.1 1006.7 0.6250 3.5000
06:23 3 2.3 95 347 1.9 3.1 1006.8 0.3120 3.5000
06:34 2.9 2.2 95 296 1.4 2.5 1006.8 0.3120 3.5000
06:44 2.8 2.1 95 221 1.7 2.2 1006.7 0.3120 3.5000
06:54 2.7 2 95 223 1.9 2.8 1006.7 0.2080 3.5000
07:04 2.7 2 95 230 1.4 2.5 1006.6 0.1040 3.5000
07:14 2.7 2 95 223 1.4 2.5 1006.5 0.0000 3.5000
07:24 2.5 1.8 95 220 1.9 2.5 1006.4 0.0000 3.5000
07:34 2.5 1.8 95 229 1.4 2.5 1006.5 0.0000 3.5000
07:45 2.4 1.7 95 218 1.7 2.8 1006.6 0.0000 3.5000
07:55 2.3 1.6 95 221 1.7 2.5 1006.6 0.0000 3.5000
08:04 2.5 1.9 96 265 1.7 3.1 1006.8 0.0000 3.5000
08:15 2.7 2.1 96 254 1.4 2.8 1006.8 0.0000 3.5000
08:25 2.8 2.2 96 230 1.7 2.5 1006.7 0.0000 3.5000
08:45 2.9 2.3 96 222 2.2 3.3 1006.7 0.0000 3.5000
08:55 2.9 2.2 95 214 1.9 3.1 1006.7 0.0000 3.5000
09:05 3 2.4 96 223 2.2 3.3 1006.6 0.1040 3.6000
09:15 3.2 2.6 96 223 2.5 3.9 1006.8 0.1040 3.6000
09:25 3.2 2.5 95 216 2.5 3.6 1006.7 0.1040 3.6000
09:36 3.3 2.6 95 222 2.5 3.3 1006.7 0.1040 3.6000
09:45 3.3 2.6 95 227 2.2 3.3 1006.8 0.1040 3.6000
09:58 3.4 2.5 94 245 1.7 3.6 1007 0.3130 3.9000
10:08 3.3 2.3 93 352 1.7 3.3 1007 0.4180 4.1000
10:18 3.1 2.1 93 213 2.2 3.1 1006.9 0.4180 4.1000
10:28 3.1 2.1 93 204 2.8 3.9 1006.8 0.4180 4.1000
10:38 3.1 2.2 94 204 2.5 3.3 1006.7 0.4180 4.1000
10:48 3.1 2.2 94 211 2.2 3.3 1006.7 0.4180 4.1000
10:59 3.1 2.2 94 214 2.5 3.6 1006.8 0.0000 4.1000
11:08 3.1 2.2 94 216 2.8 3.6 1006.8 0.0000 4.1000
11:18 3.1 2.1 93 221 2.8 3.9 1006.6 0.1040 4.2000
11:29 3.2 2.3 94 212 2.5 3.6 1006.5 0.1040 4.2000
11:39 3.3 2.4 94 210 2.8 4.2 1006.4 0.1040 4.2000
11:49 3.3 2.1 92 214 3.1 3.9 1006.2 0.1040 4.2000
11:58 3.4 2.2 92 210 2.8 4.2 1006.1 0.1040 4.2000
12:09 3.6 2.6 93 207 2.5 3.3 1006.1 0.1040 4.2000
12:19 3.7 2.4 91 213 2.8 4.2 1006.2 0.0000 4.2000
12:29 3.6 2.3 91 1 2.8 4.2 1006.5 0.0000 4.2000
12:40 3.4 2.1 91 355 3.3 5 1006.5 0.3130 4.5000
12:51 2.9 1.6 91 346 1.9 4.4 1006.4 0.9390 5.1000
13:00 2.7 1.7 93 157 1.1 1.9 1006.1 1.1470 5.3000
13:10 2.5 1.6 94 175 1.4 2.2 1005.9 1.3550 5.5000
13:20 2.8 2.2 96 182 2.2 4.4 1005.8 1.3550 5.5000
13:31 3.3 2.7 96 168 2.2 3.3 1005.7 1.3550 5.5000
13:41 3.5 2.6 94 196 2.5 4.2 1005.7 0.8330 5.5000
13:50 3.5 2.5 93 205 1.9 2.8 1005.8 0.4160 5.5000
14:01 3.5 2.5 93 212 1.4 1.9 1005.8 0.7300 6.0000
14:11 3.5 2.5 93 174 0.8 1.7 1005.7 0.8350 6.4000
14:21 3.3 2.1 92 131 1.1 2.2 1005.7 1.2520 6.8000
14:31 3.3 2.3 93 146 1.7 2.8 1005.6 1.3560 6.9000
14:41 3.4 2.5 94 165 2.2 3.1 1005.4 1.3560 6.9000
14:51 3.4 2.4 93 174 2.8 3.9 1005.4 1.3560 6.9000
15:01 3.3 2.3 93 186 2.5 3.9 1005.3 0.8340 6.9000
15:12 3.2 2 92 208 3.3 4.7 1005.4 0.5210 6.9000
15:22 3 1.8 92 197 2.8 4.2 1005.4 0.1040 6.9000
15:31 2.9 1.9 93 199 2.8 3.9 1005.3 0.0000 6.9000
15:41 2.7 1.7 93 182 2.5 3.3 1005.2 0.0000 6.9000
15:52 2.3 1.3 93 198 2.5 4.4 1005.2 0.0000 6.9000
16:02 2.2 1.3 94 197 2.8 4.2 1005.2 0.0000 6.9000
16:11 2 1 93 196 2.2 3.6 1005.1 0.0000 6.9000
16:22 1.6 0.6 93 196 2.2 3.3 1005.2 0.0000 6.9000
16:32 1.5 0.6 94 201 2.2 3.3 1005.2 0.0000 6.9000
16:42 1.3 0.4 94 201 1.7 2.8 1005.3 0.0000 6.9000
16:52 1.2 0.3 94 212 1.1 2.2 1005.4 0.0000 6.9000
17:02 1.2 0.5 95 208 1.4 2.5 1005.4 0.0000 6.9000
17:12 1.5 0.9 96 201 2.5 3.9 1005.3 0.0000 6.9000
17:22 1.9 1.5 97 206 2.8 3.6 1005.3 0.1040 7.0000
17:32 2.1 1.5 96 200 3.1 4.4 1005.3 0.2080 7.1000
17:43 2.1 1.4 95 201 2.5 3.6 1005.4 0.2080 7.1000
17:46 2.1 1.4 95 204 2.2 3.1 1005.4 0.3120 7.2000
17:56 2.1 1.4 95 198 1.7 2.8 1005.3 0.3120 7.2000
18:07 2.1 1.5 96 198 2.2 2.8 1005.3 0.3120 7.2000
18:16 2 1.3 95 186 1.7 2.5 1005.2 0.2080 7.2000
18:26 1.8 1.1 95 186 1.9 2.8 1005.3 0.1040 7.2000
18:37 1.6 0.9 95 195 1.7 2.8 1005.3 0.1040 7.2000
18:47 1.3 0.4 94 186 1.7 2.8 1005.3 0.0000 7.2000
18:57 1.2 0.5 95 183 1.4 1.9 1005.3 0.0000 7.2000
19:06 1 0.3 95 199 1.4 1.9 1005.3 0.0000 7.2000
19:17 0.9 0.2 95 246 1.1 2.5 1005.4 0.0000 7.2000
19:27 0.8 0.1 95 240 1.1 2.8 1005.5 0.0000 7.2000
19:37 0.7 0 95 226 1.1 1.9 1005.4 0.0000 7.2000
19:47 0.5 -0.2 95 315 1.4 3.1 1005.5 0.1040 7.3000
19:57 0.2 -0.6 94 348 1.7 3.1 1005.5 0.1040 7.3000
20:07 0 -0.7 94 353 1.1 2.2 1005.6 0.1040 7.3000
20:17 -0.2 -0.8 95 345 1.4 2.8 1005.6 0.1040 7.3000
20:28 -0.3 -0.9 95 355 1.9 2.8 1005.7 0.1040 7.3000
20:38 -0.8 -1.5 94 358 1.9 3.1 1005.8 0.1040 7.3000
20:47 -1 -1.6 95 347 1.7 3.6 1005.8 0.0000 7.3000
20:58 -0.9 -1.5 95 344 1.4 2.8 1005.8 0.0000 7.3000
21:08 -1 -1.6 95 358 1.9 3.1 1005.9 0.0000 7.3000
21:18 -0.9 -1.4 96 349 1.4 2.8 1006.1 0.0000 7.3000
21:28 -0.6 -1.1 96 353 1.9 3.3 1006.1 0.0000 7.3000
21:38 -0.4 -0.8 97 355 1.9 3.1 1006.1 0.0000 7.3000
21:48 -0.1 -0.5 97 356 1.7 3.3 1006.2 0.0000 7.3000
21:58 0.2 -0.2 97 357 2.5 3.9 1006.1 0.0000 7.3000
22:08 0.3 -0.1 97 352 1.7 3.3 1006.2 0.0000 7.3000
22:19 0.4 0 97 338 1.7 2.8 1006.2 0.0000 7.3000
22:28 0.5 0.1 97 342 1.7 2.8 1006.3 0.0000 7.3000
22:38 0.5 0.1 97 349 1.4 2.8 1006.3 0.0000 7.3000
22:49 0.5 0.1 97 347 1.7 2.8 1006.3 0.0000 7.3000
22:59 0.5 0.1 97 348 1.7 2.8 1006.3 0.0000 7.3000
23:09 0.5 0.1 97 354 1.9 4.4 1006.4 0.0000 7.3000
23:19 0.5 0.1 97 351 1.9 3.3 1006.4 0.0000 7.3000
23:29 0.5 0.1 97 352 1.9 3.6 1006.5 0.0000 7.3000
23:38 0.6 0.2 97 344 1.9 3.9 1006.5 0.0000 7.3000
23:48 0.6 0.2 97 343 1.4 2.8 1006.5 0.0000 7.3000
23:58 0.6 0.2 97 304 1.4 2.8 1006.4 0.0000

DAY STATISTIC

2022-12-08
TEMPERATURE
AVERAGE
2.4
HIGH
3.8
04:23
LOW
-1.0
20:47
PRESSURE
AVERAGE
1006.5
HIGH
1009.9
00:14
LOW
1005.1
16:11
DEWPOINT
AVERAGE
1.6
HIGH
2.9
04:23
LOW
-1.6
20:47
HUMIDITY
AVERAGE
94
HIGH
97
17:22
LOW
91
12:19
WIND SPEED
AVERAGE
1.9
HIGH
5.3
05:34
WIND GUST
AVERAGE
3.2
HIGH
7.5
05:34
WIND DIRECTION
PREVAILING
SW
38.3%
N
23.4
NE
0.0
E
0.0
SE
2.1
S
22.7
SW
38.3
W
7.8
NW
5.7
PRECIPITATION
RAIN HOUR
1.4
RAIN DAY
7.3
TEMPERATURE (°C)
LOW
-1.0
HIGH
3.8
AVERAGE
2.4
PRESSURE (hpa)
LOW
1005.1
HIGH
1009.9
AVERAGE
1006.5
DEVICE